sensor_id;sensor_type;location;lat;lon;timestamp;pressure;altitude;pressure_sealevel;temperature;humidity
46211;BME280;52144;48.040;-1.594;2023-04-07T00:01:10;101445.94;;;19.60;47.56
46211;BME280;52144;48.040;-1.594;2023-04-07T00:03:38;101447.78;;;19.47;47.85
46211;BME280;52144;48.040;-1.594;2023-04-07T00:06:08;101453.31;;;19.33;48.07
46211;BME280;52144;48.040;-1.594;2023-04-07T00:08:35;101443.72;;;19.16;47.42
46211;BME280;52144;48.040;-1.594;2023-04-07T00:11:03;101443.94;;;19.26;48.06
46211;BME280;52144;48.040;-1.594;2023-04-07T00:13:31;101447.13;;;19.43;48.08
46211;BME280;52144;48.040;-1.594;2023-04-07T00:15:59;101439.91;;;19.44;47.74
46211;BME280;52144;48.040;-1.594;2023-04-07T00:18:27;101433.94;;;19.52;48.73
46211;BME280;52144;48.040;-1.594;2023-04-07T00:20:55;101434.38;;;19.58;48.07
46211;BME280;52144;48.040;-1.594;2023-04-07T00:23:24;101435.78;;;19.51;47.54
46211;BME280;52144;48.040;-1.594;2023-04-07T00:25:52;101440.34;;;19.38;47.11
46211;BME280;52144;48.040;-1.594;2023-04-07T00:28:20;101437.03;;;19.21;47.34
46211;BME280;52144;48.040;-1.594;2023-04-07T00:30:48;101431.38;;;18.99;47.76
46211;BME280;52144;48.040;-1.594;2023-04-07T00:33:15;101430.84;;;18.94;48.01
46211;BME280;52144;48.040;-1.594;2023-04-07T00:35:44;101427.16;;;18.95;47.83
46211;BME280;52144;48.040;-1.594;2023-04-07T00:38:11;101431.19;;;19.02;47.53
46211;BME280;52144;48.040;-1.594;2023-04-07T00:40:41;101430.97;;;19.05;47.83
46211;BME280;52144;48.040;-1.594;2023-04-07T00:43:08;101422.09;;;18.90;47.42
46211;BME280;52144;48.040;-1.594;2023-04-07T00:45:36;101424.38;;;18.83;47.85
46211;BME280;52144;48.040;-1.594;2023-04-07T00:48:04;101419.63;;;18.87;48.41
46211;BME280;52144;48.040;-1.594;2023-04-07T00:50:32;101421.13;;;18.91;47.28
46211;BME280;52144;48.040;-1.594;2023-04-07T00:53:00;101419.81;;;18.97;47.70
46211;BME280;52144;48.040;-1.594;2023-04-07T00:55:28;101413.91;;;18.92;47.95
46211;BME280;52144;48.040;-1.594;2023-04-07T00:57:57;101415.41;;;18.83;47.89
46211;BME280;52144;48.040;-1.594;2023-04-07T01:00:26;101417.53;;;18.78;48.11
46211;BME280;52144;48.040;-1.594;2023-04-07T01:02:57;101421.50;;;18.72;47.99
46211;BME280;52144;48.040;-1.594;2023-04-07T01:05:31;101425.72;;;18.76;47.95
46211;BME280;52144;48.040;-1.594;2023-04-07T01:08:07;101426.38;;;18.67;47.49
46211;BME280;52144;48.040;-1.594;2023-04-07T01:10:43;101423.53;;;18.56;47.10
46211;BME280;52144;48.040;-1.594;2023-04-07T01:13:22;101427.31;;;18.53;47.80
46211;BME280;52144;48.040;-1.594;2023-04-07T01:15:51;101418.78;;;18.47;46.71
46211;BME280;52144;48.040;-1.594;2023-04-07T01:18:26;101423.34;;;18.59;47.79
46211;BME280;52144;48.040;-1.594;2023-04-07T01:21:01;101421.97;;;18.39;47.71
46211;BME280;52144;48.040;-1.594;2023-04-07T01:23:38;101425.00;;;18.34;48.40
46211;BME280;52144;48.040;-1.594;2023-04-07T01:26:17;101429.22;;;18.38;48.16
46211;BME280;52144;48.040;-1.594;2023-04-07T01:31:50;101415.09;;;18.48;47.64
46211;BME280;52144;48.040;-1.594;2023-04-07T01:34:22;101413.16;;;18.50;47.47
46211;BME280;52144;48.040;-1.594;2023-04-07T01:36:53;101419.03;;;18.29;46.94
46211;BME280;52144;48.040;-1.594;2023-04-07T01:39:22;101426.44;;;18.40;47.30
46211;BME280;52144;48.040;-1.594;2023-04-07T01:41:51;101421.47;;;18.19;47.29
46211;BME280;52144;48.040;-1.594;2023-04-07T01:44:20;101418.16;;;18.16;47.98
46211;BME280;52144;48.040;-1.594;2023-04-07T01:46:50;101418.50;;;18.24;47.77
46211;BME280;52144;48.040;-1.594;2023-04-07T01:49:18;101427.91;;;18.04;47.02
46211;BME280;52144;48.040;-1.594;2023-04-07T01:51:46;101424.13;;;18.07;48.67
46211;BME280;52144;48.040;-1.594;2023-04-07T01:54:17;101426.56;;;17.97;47.93
46211;BME280;52144;48.040;-1.594;2023-04-07T01:56:45;101420.94;;;17.87;48.24
46211;BME280;52144;48.040;-1.594;2023-04-07T01:59:12;101429.16;;;17.98;47.95
46211;BME280;52144;48.040;-1.594;2023-04-07T02:01:41;101435.22;;;18.02;47.81
46211;BME280;52144;48.040;-1.594;2023-04-07T02:04:16;101425.56;;;18.12;48.33
46211;BME280;52144;48.040;-1.594;2023-04-07T02:06:51;101435.69;;;18.09;48.00
46211;BME280;52144;48.040;-1.594;2023-04-07T02:09:20;101424.91;;;18.09;48.05
46211;BME280;52144;48.040;-1.594;2023-04-07T02:11:49;101431.69;;;18.01;48.47
46211;BME280;52144;48.040;-1.594;2023-04-07T02:14:19;101431.41;;;18.19;48.52
46211;BME280;52144;48.040;-1.594;2023-04-07T02:16:50;101433.56;;;18.14;48.34
46211;BME280;52144;48.040;-1.594;2023-04-07T02:19:21;101434.19;;;17.90;47.16
46211;BME280;52144;48.040;-1.594;2023-04-07T02:21:50;101433.72;;;17.98;48.29
46211;BME280;52144;48.040;-1.594;2023-04-07T02:24:19;101429.56;;;17.92;47.71
46211;BME280;52144;48.040;-1.594;2023-04-07T02:26:47;101439.03;;;17.85;46.86
46211;BME280;52144;48.040;-1.594;2023-04-07T02:29:15;101435.69;;;17.67;47.88
46211;BME280;52144;48.040;-1.594;2023-04-07T02:31:43;101441.19;;;17.51;47.43
46211;BME280;52144;48.040;-1.594;2023-04-07T02:34:11;101444.63;;;17.68;47.44
46211;BME280;52144;48.040;-1.594;2023-04-07T02:36:40;101444.72;;;17.52;47.76
46211;BME280;52144;48.040;-1.594;2023-04-07T02:39:08;101438.66;;;17.48;47.70
46211;BME280;52144;48.040;-1.594;2023-04-07T02:41:36;101441.19;;;17.51;47.72
46211;BME280;52144;48.040;-1.594;2023-04-07T02:44:04;101452.34;;;17.45;47.73
46211;BME280;52144;48.040;-1.594;2023-04-07T02:46:32;101448.41;;;17.36;47.01
46211;BME280;52144;48.040;-1.594;2023-04-07T02:48:59;101453.88;;;17.49;47.96
46211;BME280;52144;48.040;-1.594;2023-04-07T02:51:27;101444.44;;;17.42;47.61
46211;BME280;52144;48.040;-1.594;2023-04-07T02:53:56;101445.50;;;17.54;48.32
46211;BME280;52144;48.040;-1.594;2023-04-07T02:56:24;101446.34;;;17.54;47.70
46211;BME280;52144;48.040;-1.594;2023-04-07T02:58:52;101435.69;;;17.53;48.02
46211;BME280;52144;48.040;-1.594;2023-04-07T03:01:19;101434.25;;;17.47;47.92
46211;BME280;52144;48.040;-1.594;2023-04-07T03:03:47;101441.34;;;17.48;47.62
46211;BME280;52144;48.040;-1.594;2023-04-07T03:06:15;101446.16;;;17.57;47.03
46211;BME280;52144;48.040;-1.594;2023-04-07T03:08:43;101445.56;;;17.81;47.88
46211;BME280;52144;48.040;-1.594;2023-04-07T03:11:12;101434.56;;;17.98;47.64
46211;BME280;52144;48.040;-1.594;2023-04-07T03:13:40;101440.00;;;17.70;46.49
46211;BME280;52144;48.040;-1.594;2023-04-07T03:16:08;101436.34;;;17.42;46.66
46211;BME280;52144;48.040;-1.594;2023-04-07T03:18:36;101449.94;;;17.40;47.29
46211;BME280;52144;48.040;-1.594;2023-04-07T03:21:04;101445.03;;;17.33;46.30
46211;BME280;52144;48.040;-1.594;2023-04-07T03:23:31;101442.72;;;17.27;46.63
46211;BME280;52144;48.040;-1.594;2023-04-07T03:25:59;101435.19;;;17.32;47.37
46211;BME280;52144;48.040;-1.594;2023-04-07T03:28:29;101433.41;;;17.18;47.71
46211;BME280;52144;48.040;-1.594;2023-04-07T03:30:57;101428.09;;;17.02;47.97
46211;BME280;52144;48.040;-1.594;2023-04-07T03:33:25;101437.44;;;17.25;48.07
46211;BME280;52144;48.040;-1.594;2023-04-07T03:35:52;101430.41;;;17.22;47.25
46211;BME280;52144;48.040;-1.594;2023-04-07T03:38:20;101430.19;;;17.25;47.31
46211;BME280;52144;48.040;-1.594;2023-04-07T03:40:48;101434.94;;;17.22;47.95
46211;BME280;52144;48.040;-1.594;2023-04-07T03:43:16;101436.19;;;17.45;47.51
46211;BME280;52144;48.040;-1.594;2023-04-07T03:45:45;101435.09;;;17.48;47.21
46211;BME280;52144;48.040;-1.594;2023-04-07T03:48:13;101427.72;;;17.37;47.03
46211;BME280;52144;48.040;-1.594;2023-04-07T03:50:41;101414.34;;;17.35;46.95
46211;BME280;52144;48.040;-1.594;2023-04-07T03:53:09;101421.56;;;17.06;47.37
46211;BME280;52144;48.040;-1.594;2023-04-07T03:55:36;101421.56;;;16.92;47.46
46211;BME280;52144;48.040;-1.594;2023-04-07T03:58:04;101424.97;;;16.79;48.22
46211;BME280;52144;48.040;-1.594;2023-04-07T04:00:32;101429.66;;;16.45;48.76
46211;BME280;52144;48.040;-1.594;2023-04-07T04:03:02;101416.94;;;16.63;48.93
46211;BME280;52144;48.040;-1.594;2023-04-07T04:05:30;101431.84;;;16.69;49.08
46211;BME280;52144;48.040;-1.594;2023-04-07T04:07:58;101427.72;;;16.63;49.86
46211;BME280;52144;48.040;-1.594;2023-04-07T04:10:26;101428.19;;;16.70;50.10
46211;BME280;52144;48.040;-1.594;2023-04-07T04:12:53;101433.41;;;16.73;49.61
46211;BME280;52144;48.040;-1.594;2023-04-07T04:15:21;101424.50;;;16.87;49.36
46211;BME280;52144;48.040;-1.594;2023-04-07T04:17:49;101421.88;;;16.71;49.11
46211;BME280;52144;48.040;-1.594;2023-04-07T04:20:18;101425.75;;;16.81;49.86
46211;BME280;52144;48.040;-1.594;2023-04-07T04:22:47;101417.44;;;16.70;50.00
46211;BME280;52144;48.040;-1.594;2023-04-07T04:25:15;101424.59;;;16.55;49.98
46211;BME280;52144;48.040;-1.594;2023-04-07T04:27:43;101425.13;;;16.46;50.28
46211;BME280;52144;48.040;-1.594;2023-04-07T04:30:11;101426.34;;;17.01;51.58
46211;BME280;52144;48.040;-1.594;2023-04-07T04:32:39;101428.50;;;17.10;50.62
46211;BME280;52144;48.040;-1.594;2023-04-07T04:35:07;101423.47;;;17.33;50.25
46211;BME280;52144;48.040;-1.594;2023-04-07T04:37:37;101429.41;;;17.52;50.48
46211;BME280;52144;48.040;-1.594;2023-04-07T04:40:05;101425.56;;;17.56;48.62
46211;BME280;52144;48.040;-1.594;2023-04-07T04:42:34;101424.94;;;17.38;49.40
46211;BME280;52144;48.040;-1.594;2023-04-07T04:45:03;101424.44;;;17.03;49.65
46211;BME280;52144;48.040;-1.594;2023-04-07T04:47:31;101427.13;;;17.03;49.62
46211;BME280;52144;48.040;-1.594;2023-04-07T04:49:59;101425.78;;;17.24;48.80
46211;BME280;52144;48.040;-1.594;2023-04-07T04:52:26;101429.03;;;17.15;49.26
46211;BME280;52144;48.040;-1.594;2023-04-07T04:54:56;101428.88;;;17.47;49.17
46211;BME280;52144;48.040;-1.594;2023-04-07T04:57:23;101432.91;;;17.11;48.74
46211;BME280;52144;48.040;-1.594;2023-04-07T04:59:51;101434.75;;;16.80;49.47
46211;BME280;52144;48.040;-1.594;2023-04-07T05:02:19;101433.47;;;16.88;50.12
46211;BME280;52144;48.040;-1.594;2023-04-07T05:04:47;101430.78;;;16.88;50.31
46211;BME280;52144;48.040;-1.594;2023-04-07T05:07:15;101431.56;;;17.04;49.94
46211;BME280;52144;48.040;-1.594;2023-04-07T05:09:43;101434.25;;;17.18;49.84
46211;BME280;52144;48.040;-1.594;2023-04-07T05:12:12;101438.56;;;17.35;50.16
46211;BME280;52144;48.040;-1.594;2023-04-07T05:14:40;101427.88;;;17.48;49.68
46211;BME280;52144;48.040;-1.594;2023-04-07T05:17:08;101437.09;;;17.58;49.50
46211;BME280;52144;48.040;-1.594;2023-04-07T05:19:36;101432.50;;;17.60;49.77
46211;BME280;52144;48.040;-1.594;2023-04-07T05:22:03;101441.09;;;17.53;48.80
46211;BME280;52144;48.040;-1.594;2023-04-07T05:24:31;101441.34;;;17.48;49.45
46211;BME280;52144;48.040;-1.594;2023-04-07T05:26:59;101445.88;;;17.48;49.60
46211;BME280;52144;48.040;-1.594;2023-04-07T05:29:28;101445.22;;;17.30;49.98
46211;BME280;52144;48.040;-1.594;2023-04-07T05:31:56;101443.66;;;17.25;50.59
46211;BME280;52144;48.040;-1.594;2023-04-07T05:34:24;101441.97;;;17.24;50.44
46211;BME280;52144;48.040;-1.594;2023-04-07T05:36:52;101440.59;;;17.32;50.79
46211;BME280;52144;48.040;-1.594;2023-04-07T05:39:20;101436.28;;;17.29;49.93
46211;BME280;52144;48.040;-1.594;2023-04-07T05:41:48;101440.03;;;17.12;49.94
46211;BME280;52144;48.040;-1.594;2023-04-07T05:44:16;101435.72;;;17.24;51.04
46211;BME280;52144;48.040;-1.594;2023-04-07T05:46:45;101437.03;;;17.31;50.34
46211;BME280;52144;48.040;-1.594;2023-04-07T05:49:13;101441.47;;;17.61;51.27
46211;BME280;52144;48.040;-1.594;2023-04-07T05:51:45;101442.78;;;17.68;50.76
46211;BME280;52144;48.040;-1.594;2023-04-07T05:54:14;101446.63;;;17.64;50.27
46211;BME280;52144;48.040;-1.594;2023-04-07T05:56:42;101445.97;;;17.89;50.93
46211;BME280;52144;48.040;-1.594;2023-04-07T05:59:10;101452.88;;;17.93;50.27
46211;BME280;52144;48.040;-1.594;2023-04-07T06:01:38;101452.97;;;17.77;49.78
46211;BME280;52144;48.040;-1.594;2023-04-07T06:04:07;101456.09;;;17.28;52.33
46211;BME280;52144;48.040;-1.594;2023-04-07T06:06:35;101453.28;;;17.58;52.28
46211;BME280;52144;48.040;-1.594;2023-04-07T06:09:03;101452.41;;;17.58;50.63
46211;BME280;52144;48.040;-1.594;2023-04-07T06:11:33;101456.75;;;17.46;51.69
46211;BME280;52144;48.040;-1.594;2023-04-07T06:14:01;101453.28;;;17.58;51.22
46211;BME280;52144;48.040;-1.594;2023-04-07T06:16:29;101459.13;;;17.79;51.44
46211;BME280;52144;48.040;-1.594;2023-04-07T06:18:57;101466.78;;;17.87;50.45
46211;BME280;52144;48.040;-1.594;2023-04-07T06:21:26;101461.94;;;17.63;51.43
46211;BME280;52144;48.040;-1.594;2023-04-07T06:23:54;101473.59;;;17.64;50.58
46211;BME280;52144;48.040;-1.594;2023-04-07T06:26:22;101470.09;;;17.91;51.60
46211;BME280;52144;48.040;-1.594;2023-04-07T06:28:50;101470.91;;;18.20;51.65
46211;BME280;52144;48.040;-1.594;2023-04-07T06:31:18;101476.09;;;18.23;50.79
46211;BME280;52144;48.040;-1.594;2023-04-07T06:33:46;101474.28;;;18.09;51.37
46211;BME280;52144;48.040;-1.594;2023-04-07T06:36:14;101475.41;;;17.92;51.03
46211;BME280;52144;48.040;-1.594;2023-04-07T06:38:44;101472.94;;;17.89;51.54
46211;BME280;52144;48.040;-1.594;2023-04-07T06:41:12;101480.81;;;18.19;51.53
46211;BME280;52144;48.040;-1.594;2023-04-07T06:43:42;101480.44;;;17.84;51.67
46211;BME280;52144;48.040;-1.594;2023-04-07T06:46:10;101490.75;;;18.19;51.57
46211;BME280;52144;48.040;-1.594;2023-04-07T06:48:38;101497.00;;;18.19;50.91
46211;BME280;52144;48.040;-1.594;2023-04-07T06:51:06;101493.25;;;18.22;51.03
46211;BME280;52144;48.040;-1.594;2023-04-07T06:53:33;101490.47;;;18.51;51.73
46211;BME280;52144;48.040;-1.594;2023-04-07T06:56:04;101495.00;;;18.09;51.01
46211;BME280;52144;48.040;-1.594;2023-04-07T06:58:32;101492.06;;;17.84;51.14
46211;BME280;52144;48.040;-1.594;2023-04-07T07:01:01;101502.00;;;18.25;51.39
46211;BME280;52144;48.040;-1.594;2023-04-07T07:03:30;101495.44;;;17.88;50.94
46211;BME280;52144;48.040;-1.594;2023-04-07T07:05:58;101505.81;;;17.80;51.90
46211;BME280;52144;48.040;-1.594;2023-04-07T07:08:27;101507.88;;;18.32;51.84
46211;BME280;52144;48.040;-1.594;2023-04-07T07:10:56;101498.97;;;18.44;50.47
46211;BME280;52144;48.040;-1.594;2023-04-07T07:13:25;101506.22;;;18.57;51.42
46211;BME280;52144;48.040;-1.594;2023-04-07T07:15:53;101511.50;;;18.04;51.73
46211;BME280;52144;48.040;-1.594;2023-04-07T07:18:21;101506.88;;;18.33;51.31
46211;BME280;52144;48.040;-1.594;2023-04-07T07:20:49;101496.78;;;18.77;51.39
46211;BME280;52144;48.040;-1.594;2023-04-07T07:23:17;101506.00;;;18.60;50.20
46211;BME280;52144;48.040;-1.594;2023-04-07T07:25:44;101497.13;;;18.45;50.27
46211;BME280;52144;48.040;-1.594;2023-04-07T07:28:12;101500.63;;;18.60;50.41
46211;BME280;52144;48.040;-1.594;2023-04-07T07:30:41;101500.13;;;18.40;51.99
46211;BME280;52144;48.040;-1.594;2023-04-07T07:33:09;101503.09;;;19.03;51.32
46211;BME280;52144;48.040;-1.594;2023-04-07T07:35:37;101503.16;;;19.54;51.09
46211;BME280;52144;48.040;-1.594;2023-04-07T07:38:06;101512.75;;;19.07;49.52
46211;BME280;52144;48.040;-1.594;2023-04-07T07:40:33;101510.81;;;19.48;50.57
46211;BME280;52144;48.040;-1.594;2023-04-07T07:43:01;101515.66;;;19.04;49.74
46211;BME280;52144;48.040;-1.594;2023-04-07T07:45:29;101508.66;;;19.27;50.63
46211;BME280;52144;48.040;-1.594;2023-04-07T07:47:58;101511.03;;;19.32;50.94
46211;BME280;52144;48.040;-1.594;2023-04-07T07:50:26;101505.94;;;19.53;50.62
46211;BME280;52144;48.040;-1.594;2023-04-07T07:52:54;101509.28;;;19.82;50.27
46211;BME280;52144;48.040;-1.594;2023-04-07T07:55:22;101509.59;;;19.90;50.21
46211;BME280;52144;48.040;-1.594;2023-04-07T07:57:49;101502.03;;;19.95;49.98
46211;BME280;52144;48.040;-1.594;2023-04-07T08:00:17;101503.97;;;19.68;49.15
46211;BME280;52144;48.040;-1.594;2023-04-07T08:02:45;101502.25;;;18.35;53.21
46211;BME280;52144;48.040;-1.594;2023-04-07T08:05:15;101499.03;;;19.23;53.58
46211;BME280;52144;48.040;-1.594;2023-04-07T08:07:43;101509.91;;;18.29;53.28
46211;BME280;52144;48.040;-1.594;2023-04-07T08:10:12;101513.44;;;17.30;56.16
46211;BME280;52144;48.040;-1.594;2023-04-07T08:12:40;101512.94;;;17.52;55.86
46211;BME280;52144;48.040;-1.594;2023-04-07T08:15:08;101515.38;;;18.00;54.98
46211;BME280;52144;48.040;-1.594;2023-04-07T08:17:36;101515.53;;;17.97;55.08
46211;BME280;52144;48.040;-1.594;2023-04-07T08:20:06;101521.41;;;17.46;56.53
46211;BME280;52144;48.040;-1.594;2023-04-07T08:22:35;101517.59;;;18.89;54.80
46211;BME280;52144;48.040;-1.594;2023-04-07T08:25:04;101525.69;;;18.89;54.43
46211;BME280;52144;48.040;-1.594;2023-04-07T08:27:31;101522.69;;;19.45;54.04
46211;BME280;52144;48.040;-1.594;2023-04-07T08:30:01;101518.06;;;19.47;53.35
46211;BME280;52144;48.040;-1.594;2023-04-07T08:32:36;101524.34;;;19.60;52.09
46211;BME280;52144;48.040;-1.594;2023-04-07T08:35:04;101526.97;;;18.15;55.54
46211;BME280;52144;48.040;-1.594;2023-04-07T08:37:34;101522.50;;;18.82;54.08
46211;BME280;52144;48.040;-1.594;2023-04-07T08:40:03;101530.28;;;19.40;53.76
46211;BME280;52144;48.040;-1.594;2023-04-07T08:42:33;101526.59;;;18.75;54.09
46211;BME280;52144;48.040;-1.594;2023-04-07T08:45:03;101529.13;;;18.64;54.22
46211;BME280;52144;48.040;-1.594;2023-04-07T08:47:33;101525.41;;;19.32;54.30
46211;BME280;52144;48.040;-1.594;2023-04-07T08:50:02;101522.38;;;19.88;52.23
46211;BME280;52144;48.040;-1.594;2023-04-07T08:52:32;101516.50;;;20.07;51.63
46211;BME280;52144;48.040;-1.594;2023-04-07T08:55:03;101529.91;;;20.70;49.54
46211;BME280;52144;48.040;-1.594;2023-04-07T08:57:33;101530.41;;;20.51;51.33
46211;BME280;52144;48.040;-1.594;2023-04-07T09:00:02;101523.34;;;20.24;50.71
46211;BME280;52144;48.040;-1.594;2023-04-07T09:02:32;101520.56;;;21.09;48.82
46211;BME280;52144;48.040;-1.594;2023-04-07T09:05:03;101531.03;;;20.54;51.18
46211;BME280;52144;48.040;-1.594;2023-04-07T09:07:32;101529.88;;;20.94;48.21
46211;BME280;52144;48.040;-1.594;2023-04-07T09:10:00;101527.25;;;21.28;48.09
46211;BME280;52144;48.040;-1.594;2023-04-07T09:12:31;101530.06;;;21.84;47.24
46211;BME280;52144;48.040;-1.594;2023-04-07T09:14:59;101538.56;;;21.91;47.78
46211;BME280;52144;48.040;-1.594;2023-04-07T09:17:27;101541.88;;;21.83;46.31
46211;BME280;52144;48.040;-1.594;2023-04-07T09:19:56;101541.44;;;22.44;46.68
46211;BME280;52144;48.040;-1.594;2023-04-07T09:22:35;101544.59;;;22.60;46.51
46211;BME280;52144;48.040;-1.594;2023-04-07T09:25:11;101555.16;;;22.42;46.34
46211;BME280;52144;48.040;-1.594;2023-04-07T09:27:53;101552.59;;;22.41;45.48
46211;BME280;52144;48.040;-1.594;2023-04-07T09:30:21;101549.94;;;21.38;48.39
46211;BME280;52144;48.040;-1.594;2023-04-07T09:32:49;101549.75;;;22.31;46.91
46211;BME280;52144;48.040;-1.594;2023-04-07T09:35:17;101551.19;;;22.47;47.24
46211;BME280;52144;48.040;-1.594;2023-04-07T09:38:02;101555.16;;;22.42;46.69
46211;BME280;52144;48.040;-1.594;2023-04-07T09:40:30;101551.53;;;22.86;45.35
46211;BME280;52144;48.040;-1.594;2023-04-07T09:43:00;101551.19;;;22.47;45.60
46211;BME280;52144;48.040;-1.594;2023-04-07T09:45:30;101560.50;;;22.65;45.51
46211;BME280;52144;48.040;-1.594;2023-04-07T09:48:05;101561.41;;;22.66;46.80
46211;BME280;52144;48.040;-1.594;2023-04-07T09:50:34;101559.00;;;23.68;46.09
46211;BME280;52144;48.040;-1.594;2023-04-07T09:53:03;101553.56;;;23.47;46.38
46211;BME280;52144;48.040;-1.594;2023-04-07T09:55:31;101551.13;;;23.86;44.50
46211;BME280;52144;48.040;-1.594;2023-04-07T09:58:00;101554.19;;;22.76;44.95
46211;BME280;52144;48.040;-1.594;2023-04-07T10:00:28;101555.34;;;23.27;45.23
46211;BME280;52144;48.040;-1.594;2023-04-07T10:02:57;101555.13;;;23.91;45.86
46211;BME280;52144;48.040;-1.594;2023-04-07T10:05:26;101555.81;;;22.23;45.70
46211;BME280;52144;48.040;-1.594;2023-04-07T10:07:54;101553.50;;;23.58;45.51
46211;BME280;52144;48.040;-1.594;2023-04-07T10:10:23;101541.13;;;24.56;44.05
46211;BME280;52144;48.040;-1.594;2023-04-07T10:12:53;101538.84;;;24.51;43.86
46211;BME280;52144;48.040;-1.594;2023-04-07T10:15:22;101542.03;;;23.54;44.43
46211;BME280;52144;48.040;-1.594;2023-04-07T10:17:50;101540.34;;;23.11;46.05
46211;BME280;52144;48.040;-1.594;2023-04-07T10:20:20;101539.88;;;23.27;44.95
46211;BME280;52144;48.040;-1.594;2023-04-07T10:22:50;101530.31;;;22.79;45.01
46211;BME280;52144;48.040;-1.594;2023-04-07T10:25:21;101536.69;;;22.90;46.80
46211;BME280;52144;48.040;-1.594;2023-04-07T10:27:53;101529.78;;;23.18;44.80
46211;BME280;52144;48.040;-1.594;2023-04-07T10:30:25;101527.59;;;23.54;45.29
46211;BME280;52144;48.040;-1.594;2023-04-07T10:32:54;101527.34;;;23.97;44.43
46211;BME280;52144;48.040;-1.594;2023-04-07T10:35:22;101528.88;;;23.29;43.98
46211;BME280;52144;48.040;-1.594;2023-04-07T10:38:10;101526.56;;;24.16;42.81
46211;BME280;52144;48.040;-1.594;2023-04-07T10:40:41;101522.97;;;23.23;42.92
46211;BME280;52144;48.040;-1.594;2023-04-07T10:43:09;101518.00;;;22.75;44.44
46211;BME280;52144;48.040;-1.594;2023-04-07T10:46:02;101512.91;;;23.14;44.38
46211;BME280;52144;48.040;-1.594;2023-04-07T10:48:30;101515.16;;;25.10;42.66
46211;BME280;52144;48.040;-1.594;2023-04-07T10:51:20;101512.19;;;25.60;40.12
46211;BME280;52144;48.040;-1.594;2023-04-07T10:54:21;101513.63;;;23.99;43.38
46211;BME280;52144;48.040;-1.594;2023-04-07T10:57:11;101506.59;;;24.66;42.81
46211;BME280;52144;48.040;-1.594;2023-04-07T10:59:41;101502.25;;;24.34;42.89
46211;BME280;52144;48.040;-1.594;2023-04-07T11:02:33;101493.03;;;25.42;41.33
46211;BME280;52144;48.040;-1.594;2023-04-07T11:05:02;101495.41;;;24.69;40.84
46211;BME280;52144;48.040;-1.594;2023-04-07T11:07:45;101494.66;;;24.48;42.46
46211;BME280;52144;48.040;-1.594;2023-04-07T11:10:14;101489.91;;;24.20;43.63
46211;BME280;52144;48.040;-1.594;2023-04-07T11:12:58;101487.22;;;23.80;40.18
46211;BME280;52144;48.040;-1.594;2023-04-07T11:15:27;101485.94;;;24.63;42.16
46211;BME280;52144;48.040;-1.594;2023-04-07T11:18:10;101487.00;;;24.22;42.20
46211;BME280;52144;48.040;-1.594;2023-04-07T11:20:47;101474.63;;;23.89;41.39
46211;BME280;52144;48.040;-1.594;2023-04-07T11:23:17;101480.44;;;24.25;42.10
46211;BME280;52144;48.040;-1.594;2023-04-07T11:25:46;101480.75;;;23.50;42.62
46211;BME280;52144;48.040;-1.594;2023-04-07T11:28:15;101477.81;;;23.73;42.06
46211;BME280;52144;48.040;-1.594;2023-04-07T11:30:48;101471.50;;;25.30;39.65
46211;BME280;52144;48.040;-1.594;2023-04-07T11:33:19;101475.25;;;24.12;42.42
46211;BME280;52144;48.040;-1.594;2023-04-07T11:35:52;101474.41;;;23.40;41.79
46211;BME280;52144;48.040;-1.594;2023-04-07T11:38:21;101473.53;;;23.39;41.58
46211;BME280;52144;48.040;-1.594;2023-04-07T11:40:49;101471.50;;;23.32;41.75
46211;BME280;52144;48.040;-1.594;2023-04-07T11:43:19;101471.38;;;23.64;41.99
46211;BME280;52144;48.040;-1.594;2023-04-07T11:46:03;101472.38;;;24.13;40.39
46211;BME280;52144;48.040;-1.594;2023-04-07T11:48:33;101472.50;;;23.61;39.03
46211;BME280;52144;48.040;-1.594;2023-04-07T11:51:02;101477.28;;;24.19;39.14
46211;BME280;52144;48.040;-1.594;2023-04-07T11:53:31;101469.22;;;24.18;39.20
46211;BME280;52144;48.040;-1.594;2023-04-07T11:56:04;101463.66;;;23.38;38.83
46211;BME280;52144;48.040;-1.594;2023-04-07T11:58:32;101464.88;;;24.66;39.86
46211;BME280;52144;48.040;-1.594;2023-04-07T12:01:02;101456.69;;;24.66;39.83
46211;BME280;52144;48.040;-1.594;2023-04-07T12:03:34;101457.09;;;25.47;37.76
46211;BME280;52144;48.040;-1.594;2023-04-07T12:06:03;101454.22;;;24.92;39.07
46211;BME280;52144;48.040;-1.594;2023-04-07T12:08:42;101452.06;;;24.37;36.49
46211;BME280;52144;48.040;-1.594;2023-04-07T12:11:10;101450.66;;;26.04;34.87
46211;BME280;52144;48.040;-1.594;2023-04-07T12:13:38;101448.78;;;26.04;36.05
46211;BME280;52144;48.040;-1.594;2023-04-07T12:16:07;101444.16;;;24.92;37.98
46211;BME280;52144;48.040;-1.594;2023-04-07T12:18:36;101450.78;;;24.60;37.42
46211;BME280;52144;48.040;-1.594;2023-04-07T12:21:04;101447.63;;;24.46;37.90
46211;BME280;52144;48.040;-1.594;2023-04-07T12:23:31;101442.84;;;26.09;36.10
46211;BME280;52144;48.040;-1.594;2023-04-07T12:25:59;101442.56;;;25.84;37.04
46211;BME280;52144;48.040;-1.594;2023-04-07T12:28:27;101442.75;;;25.45;35.98
46211;BME280;52144;48.040;-1.594;2023-04-07T12:30:55;101440.41;;;25.03;35.46
46211;BME280;52144;48.040;-1.594;2023-04-07T12:33:23;101439.22;;;25.15;37.72
46211;BME280;52144;48.040;-1.594;2023-04-07T12:35:52;101440.28;;;24.95;36.75
46211;BME280;52144;48.040;-1.594;2023-04-07T12:38:20;101441.06;;;24.68;37.74
46211;BME280;52144;48.040;-1.594;2023-04-07T12:40:48;101433.56;;;26.55;35.76
46211;BME280;52144;48.040;-1.594;2023-04-07T12:43:15;101431.63;;;26.66;35.97
46211;BME280;52144;48.040;-1.594;2023-04-07T12:45:43;101436.13;;;26.03;36.23
46211;BME280;52144;48.040;-1.594;2023-04-07T12:48:11;101429.94;;;25.08;37.26
46211;BME280;52144;48.040;-1.594;2023-04-07T12:50:39;101427.41;;;24.19;36.27
46211;BME280;52144;48.040;-1.594;2023-04-07T12:53:08;101425.44;;;24.60;36.16
46211;BME280;52144;48.040;-1.594;2023-04-07T12:55:36;101423.41;;;26.48;34.68